createdAt,value
2024-01-24T00:00:47.989Z,90.75
2024-01-24T00:03:14.730Z,90.32
2024-01-24T00:05:41.173Z,90.30
2024-01-24T00:08:07.568Z,90.33
2024-01-24T00:10:33.998Z,89.91
2024-01-24T00:13:00.426Z,90.23
2024-01-24T00:15:26.816Z,90.31
2024-01-24T00:17:53.391Z,90.53
2024-01-24T00:20:20.008Z,90.77
2024-01-24T00:22:46.430Z,90.38
2024-01-24T00:25:12.907Z,90.55
2024-01-24T00:27:39.359Z,90.89
2024-01-24T00:30:06.780Z,90.57
2024-01-24T00:32:33.210Z,90.62
2024-01-24T00:34:59.669Z,90.32
2024-01-24T00:37:26.105Z,90.24
2024-01-24T00:39:52.563Z,89.86
2024-01-24T00:42:19.916Z,89.78
2024-01-24T00:44:48.777Z,89.76
2024-01-24T00:47:15.173Z,89.49
2024-01-24T00:49:41.581Z,88.94
2024-01-24T00:52:07.968Z,88.76
2024-01-24T00:54:34.731Z,88.86
2024-01-24T00:57:01.214Z,89.11
2024-01-24T00:59:27.626Z,88.30
2024-01-24T01:01:54.010Z,88.93
2024-01-24T01:04:20.438Z,88.89
2024-01-24T01:06:46.874Z,89.04
2024-01-24T01:09:13.386Z,89.17
2024-01-24T01:11:39.861Z,88.79
2024-01-24T01:14:06.277Z,88.75
2024-01-24T01:16:32.677Z,88.96
2024-01-24T01:18:59.705Z,88.30
2024-01-24T01:21:26.240Z,88.35
2024-01-24T01:23:52.654Z,88.67
2024-01-24T01:26:19.041Z,88.10
2024-01-24T01:28:45.466Z,88.25
2024-01-24T01:31:11.878Z,87.80
2024-01-24T01:33:38.464Z,87.65
2024-01-24T01:36:13.890Z,87.20
2024-01-24T01:38:45.036Z,86.91
2024-01-24T01:41:11.491Z,87.42
2024-01-24T01:43:38.050Z,86.67
2024-01-24T01:46:12.415Z,86.80
2024-01-24T01:48:39.441Z,86.14
2024-01-24T01:51:06.911Z,86.08
2024-01-24T01:53:39.377Z,85.09
2024-01-24T01:56:10.435Z,85.47
2024-01-24T01:58:38.354Z,86.14
2024-01-24T02:01:07.271Z,87.12
2024-01-24T02:03:39.136Z,87.19
2024-01-24T02:06:05.864Z,87.85
2024-01-24T02:08:36.445Z,87.49
2024-01-24T02:11:04.257Z,87.26
2024-01-24T02:13:33.626Z,86.72
2024-01-24T02:16:00.712Z,86.60
2024-01-24T02:18:27.670Z,85.79
2024-01-24T02:20:54.119Z,85.90
2024-01-24T02:23:23.360Z,85.26
2024-01-24T02:25:50.872Z,85.20
2024-01-24T02:28:17.857Z,85.02
2024-01-24T02:30:44.298Z,84.51
2024-01-24T02:33:11.299Z,84.18
2024-01-24T02:35:37.805Z,84.24
2024-01-24T02:38:04.429Z,84.31
2024-01-24T02:40:30.858Z,84.04
2024-01-24T02:42:57.307Z,85.24
2024-01-24T02:45:23.767Z,85.28
2024-01-24T02:47:50.745Z,85.25
2024-01-24T02:50:17.201Z,85.57
2024-01-24T02:52:43.650Z,85.81
2024-01-24T02:55:15.484Z,85.81
2024-01-24T02:57:42.551Z,86.15
2024-01-24T03:00:10.125Z,85.40
2024-01-24T03:02:36.542Z,85.11
2024-01-24T03:05:03.235Z,84.91
2024-01-24T03:07:30.523Z,84.43
2024-01-24T03:09:57.370Z,84.28
2024-01-24T03:12:23.857Z,84.65
2024-01-24T03:14:50.782Z,84.25
2024-01-24T03:17:18.296Z,84.41
2024-01-24T03:19:44.831Z,84.57
2024-01-24T03:22:11.255Z,84.20
2024-01-24T03:24:37.710Z,84.08
2024-01-24T03:27:04.424Z,84.89
2024-01-24T03:29:30.849Z,84.79
2024-01-24T03:31:57.242Z,85.35
2024-01-24T03:34:24.931Z,86.37
2024-01-24T03:36:51.506Z,86.58
2024-01-24T03:39:18.023Z,89.00
2024-01-24T03:41:44.442Z,90.00
2024-01-24T03:44:10.940Z,90.43
2024-01-24T03:46:37.355Z,91.03
2024-01-24T03:49:03.859Z,90.71
2024-01-24T03:51:30.375Z,90.46
2024-01-24T03:53:56.821Z,90.25
2024-01-24T03:56:23.436Z,89.64
2024-01-24T03:58:49.989Z,89.59
2024-01-24T04:01:17.473Z,88.33
2024-01-24T04:03:44.307Z,89.27
2024-01-24T04:06:10.890Z,89.61
2024-01-24T04:08:37.326Z,90.72
2024-01-24T04:11:04.182Z,92.22
2024-01-24T04:13:30.556Z,92.03
2024-01-24T04:15:57.024Z,91.06
2024-01-24T04:18:23.554Z,90.14
2024-01-24T04:20:50.035Z,88.09
2024-01-24T04:23:16.458Z,88.59
2024-01-24T04:25:42.840Z,89.30
2024-01-24T04:28:10.226Z,88.50
2024-01-24T04:30:36.645Z,88.26
2024-01-24T04:33:03.492Z,88.25
2024-01-24T04:35:30.060Z,86.71
2024-01-24T04:37:56.442Z,86.65
2024-01-24T04:40:22.853Z,85.87
2024-01-24T04:42:49.258Z,86.11
2024-01-24T04:45:17.069Z,84.91
2024-01-24T04:47:44.409Z,84.05
2024-01-24T04:50:11.814Z,82.86
2024-01-24T04:52:38.281Z,81.71
2024-01-24T04:55:05.303Z,81.18
2024-01-24T04:57:31.737Z,80.15
2024-01-24T04:59:59.879Z,80.24
2024-01-24T05:02:26.573Z,80.89
2024-01-24T05:04:53.037Z,79.50
2024-01-24T05:07:19.641Z,79.29
2024-01-24T05:09:46.196Z,79.20
2024-01-24T05:12:13.294Z,78.64
2024-01-24T05:14:39.698Z,78.81
2024-01-24T05:17:06.248Z,77.60
2024-01-24T05:19:33.842Z,76.78
2024-01-24T05:22:00.501Z,77.72
2024-01-24T05:24:26.957Z,78.00
2024-01-24T05:26:53.681Z,78.48
2024-01-24T05:29:20.544Z,78.05
2024-01-24T05:31:46.936Z,78.42
2024-01-24T05:34:13.434Z,78.32
2024-01-24T05:36:40.370Z,78.43
2024-01-24T05:39:08.500Z,77.95
2024-01-24T05:41:36.779Z,77.51
2024-01-24T05:44:03.460Z,77.57
2024-01-24T05:46:29.858Z,76.97
2024-01-24T05:48:56.964Z,76.99
2024-01-24T05:51:23.527Z,76.28
2024-01-24T05:53:49.990Z,75.36
2024-01-24T05:56:16.985Z,75.59
2024-01-24T05:58:43.468Z,73.91
2024-01-24T06:01:10.113Z,74.23
2024-01-24T06:03:36.885Z,75.34
2024-01-24T06:06:04.223Z,75.54
2024-01-24T06:08:32.465Z,76.20
2024-01-24T06:10:59.902Z,76.65
2024-01-24T06:13:26.373Z,77.68
2024-01-24T06:15:53.095Z,77.98
2024-01-24T06:18:19.827Z,78.69
2024-01-24T06:20:49.419Z,77.64
2024-01-24T06:23:16.143Z,78.78
2024-01-24T06:25:43.256Z,79.71
2024-01-24T06:28:10.352Z,79.21
2024-01-24T06:30:36.841Z,79.25
2024-01-24T06:33:03.508Z,79.60
2024-01-24T06:35:32.146Z,76.20
2024-01-24T06:37:58.534Z,75.40
2024-01-24T06:40:25.118Z,74.27
2024-01-24T06:42:51.779Z,74.48
2024-01-24T06:45:18.535Z,74.23
2024-01-24T06:47:45.155Z,73.30
2024-01-24T06:50:14.588Z,72.48
2024-01-24T06:52:41.890Z,72.08
2024-01-24T06:55:09.816Z,71.91
2024-01-24T06:57:36.271Z,71.21
2024-01-24T07:00:05.866Z,70.65
2024-01-24T07:02:32.459Z,71.64
2024-01-24T07:04:59.015Z,70.80
2024-01-24T07:07:26.449Z,71.13
2024-01-24T07:09:53.154Z,70.81
2024-01-24T07:12:21.503Z,70.76
2024-01-24T07:14:52.575Z,71.32
2024-01-24T07:17:19.656Z,71.87
2024-01-24T07:19:46.191Z,71.75
2024-01-24T07:22:12.898Z,72.27
2024-01-24T07:24:39.328Z,73.51
2024-01-24T07:27:05.842Z,73.93
2024-01-24T07:29:32.477Z,72.66
2024-01-24T07:31:58.903Z,75.01
2024-01-24T07:34:25.607Z,75.52
2024-01-24T07:36:52.178Z,75.47
2024-01-24T07:39:18.649Z,72.92
2024-01-24T07:41:45.535Z,73.18
2024-01-24T07:44:11.948Z,72.10
2024-01-24T07:46:44.671Z,71.78
2024-01-24T07:49:12.167Z,69.87
2024-01-24T07:51:41.771Z,68.99
2024-01-24T07:54:08.558Z,69.04
2024-01-24T07:56:35.161Z,68.25
2024-01-24T07:59:02.707Z,67.86
2024-01-24T08:01:29.404Z,67.39
2024-01-24T08:03:57.364Z,67.17
2024-01-24T08:06:23.954Z,66.14
2024-01-24T08:08:51.087Z,65.89
2024-01-24T08:11:18.090Z,65.90
2024-01-24T08:13:45.597Z,64.49
2024-01-24T08:16:12.522Z,65.05
2024-01-24T08:18:39.047Z,64.72
2024-01-24T08:21:08.676Z,64.63
2024-01-24T08:23:42.816Z,65.24
2024-01-24T08:26:15.697Z,65.51
2024-01-24T08:28:43.744Z,65.57
2024-01-24T08:31:11.071Z,65.49
2024-01-24T08:33:37.781Z,66.18
2024-01-24T08:36:04.585Z,65.92
2024-01-24T08:38:31.356Z,65.95
2024-01-24T08:40:57.793Z,65.61
2024-01-24T08:43:24.188Z,66.63
2024-01-24T08:45:52.012Z,65.81
2024-01-24T08:48:19.043Z,66.09
2024-01-24T08:50:45.629Z,66.46
2024-01-24T08:53:12.046Z,65.89
2024-01-24T08:55:38.555Z,66.03
2024-01-24T08:58:05.117Z,66.62
2024-01-24T09:00:31.567Z,65.74
2024-01-24T09:02:59.508Z,65.75
2024-01-24T09:05:26.823Z,66.67
2024-01-24T09:07:54.068Z,67.02
2024-01-24T09:10:20.634Z,65.54
2024-01-24T09:12:47.416Z,65.84
2024-01-24T09:15:13.996Z,65.41
2024-01-24T09:17:40.614Z,65.57
2024-01-24T09:20:08.793Z,65.25
2024-01-24T09:22:35.362Z,65.01
2024-01-24T09:25:03.530Z,65.40
2024-01-24T09:27:32.598Z,65.50
2024-01-24T09:29:59.019Z,64.70
2024-01-24T09:32:26.092Z,65.75
2024-01-24T09:34:52.718Z,64.88
2024-01-24T09:37:20.833Z,65.59
2024-01-24T09:39:49.112Z,65.35
2024-01-24T09:42:26.254Z,65.62
2024-01-24T09:44:54.768Z,65.20
2024-01-24T09:47:25.076Z,65.90
2024-01-24T09:49:52.805Z,65.96
2024-01-24T09:52:24.864Z,65.30
2024-01-24T09:54:58.995Z,65.02
2024-01-24T09:57:27.272Z,66.22
2024-01-24T09:59:54.832Z,65.75
2024-01-24T10:02:22.068Z,66.68
2024-01-24T10:04:52.088Z,66.12
2024-01-24T10:07:19.868Z,65.72
2024-01-24T10:10:06.503Z,65.63
2024-01-24T10:12:32.975Z,65.36
2024-01-24T10:14:59.624Z,65.67
2024-01-24T10:17:26.481Z,66.57
2024-01-24T10:19:53.210Z,66.31
2024-01-24T10:22:20.550Z,66.56
2024-01-24T10:24:47.062Z,66.50
2024-01-24T10:27:14.249Z,65.90
2024-01-24T10:29:41.213Z,66.18
2024-01-24T10:32:10.889Z,66.43
2024-01-24T10:34:38.641Z,65.99
2024-01-24T10:37:08.345Z,66.49
2024-01-24T10:39:36.955Z,66.11
2024-01-24T10:42:10.937Z,66.88
2024-01-24T10:44:39.469Z,65.66
2024-01-24T10:47:06.527Z,66.26
2024-01-24T10:49:33.217Z,66.04
2024-01-24T10:52:00.114Z,65.06
2024-01-24T10:54:27.484Z,66.31
2024-01-24T10:56:55.141Z,66.12
2024-01-24T10:59:21.745Z,65.66
2024-01-24T11:01:49.048Z,65.93
2024-01-24T11:04:20.503Z,65.55
2024-01-24T11:07:00.775Z,65.06
2024-01-24T11:09:54.754Z,65.68
2024-01-24T11:12:22.444Z,65.02
2024-01-24T11:14:49.731Z,65.36
2024-01-24T11:17:17.157Z,64.73
2024-01-24T11:19:43.840Z,64.67
2024-01-24T11:22:17.110Z,64.04
2024-01-24T11:24:51.703Z,65.05
2024-01-24T11:27:45.578Z,65.15
2024-01-24T11:30:16.812Z,64.94
2024-01-24T11:32:56.323Z,64.59
2024-01-24T11:35:32.455Z,64.57
2024-01-24T11:38:25.208Z,63.65
2024-01-24T11:40:58.447Z,65.16
2024-01-24T11:43:27.034Z,65.06
2024-01-24T11:45:59.551Z,64.39
2024-01-24T11:48:28.038Z,64.83
2024-01-24T11:51:02.654Z,63.90
2024-01-24T11:53:29.962Z,64.70
2024-01-24T11:55:58.323Z,64.23
2024-01-24T11:58:29.585Z,64.63
2024-01-24T12:01:03.083Z,64.14
2024-01-24T12:03:29.923Z,63.84
2024-01-24T12:05:56.806Z,64.92
2024-01-24T12:08:23.344Z,64.06
2024-01-24T12:10:52.309Z,64.23
2024-01-24T12:13:21.304Z,64.84
2024-01-24T12:15:48.183Z,63.88
2024-01-24T12:18:17.552Z,63.78
2024-01-24T12:20:54.366Z,63.83
2024-01-24T12:23:22.391Z,64.31
2024-01-24T12:25:49.120Z,63.92
2024-01-24T12:28:22.160Z,64.10
2024-01-24T12:30:50.077Z,64.09
2024-01-24T12:33:18.500Z,63.56
2024-01-24T12:35:50.500Z,63.88
2024-01-24T12:38:17.700Z,63.09
2024-01-24T12:40:53.574Z,63.16
2024-01-24T12:43:22.781Z,62.71
2024-01-24T12:45:50.414Z,63.71
2024-01-24T12:48:18.308Z,63.15
2024-01-24T12:50:46.450Z,62.23
2024-01-24T12:53:12.998Z,63.05
2024-01-24T12:55:39.421Z,62.89
2024-01-24T12:58:08.294Z,62.52
2024-01-24T13:00:35.941Z,62.58
2024-01-24T13:03:04.860Z,63.06
2024-01-24T13:05:35.817Z,63.79
2024-01-24T13:08:10.151Z,63.17
2024-01-24T13:10:38.459Z,63.33
2024-01-24T13:13:09.922Z,63.31
2024-01-24T13:15:38.484Z,63.42
2024-01-24T13:18:06.331Z,63.66
2024-01-24T13:20:32.833Z,63.52
2024-01-24T13:22:59.309Z,63.66
2024-01-24T13:25:26.709Z,63.94
2024-01-24T13:27:54.393Z,64.20
2024-01-24T13:30:20.881Z,64.28
2024-01-24T13:32:47.493Z,63.62
2024-01-24T13:35:14.180Z,63.88
2024-01-24T13:37:41.133Z,63.93
2024-01-24T13:40:10.041Z,64.10
2024-01-24T13:42:36.691Z,64.05
2024-01-24T13:45:03.723Z,63.58
2024-01-24T13:47:30.320Z,63.88
2024-01-24T13:49:56.991Z,63.42
2024-01-24T13:52:23.638Z,63.56
2024-01-24T13:54:50.170Z,63.53
2024-01-24T13:57:16.693Z,64.54
2024-01-24T13:59:43.485Z,63.85
2024-01-24T14:02:11.356Z,64.05
2024-01-24T14:04:38.088Z,64.33
2024-01-24T14:07:04.734Z,63.79
2024-01-24T14:09:31.231Z,63.98
2024-01-24T14:11:58.482Z,64.56
2024-01-24T14:14:28.799Z,65.48
2024-01-24T14:16:58.116Z,64.18
2024-01-24T14:19:25.233Z,63.89
2024-01-24T14:21:52.685Z,64.13
2024-01-24T14:24:19.220Z,64.41
2024-01-24T14:26:45.660Z,64.26
2024-01-24T14:29:12.045Z,64.51
2024-01-24T14:31:39.259Z,64.52
2024-01-24T14:34:05.883Z,65.31
2024-01-24T14:36:37.275Z,64.79
2024-01-24T14:39:06.959Z,64.36
2024-01-24T14:41:33.417Z,64.76
2024-01-24T14:43:59.818Z,64.52
2024-01-24T14:46:26.338Z,64.69
2024-01-24T14:48:53.043Z,64.86
2024-01-24T14:51:20.711Z,65.23
2024-01-24T14:53:47.237Z,65.28
2024-01-24T14:56:13.713Z,64.83
2024-01-24T14:58:40.210Z,64.74
2024-01-24T15:01:07.173Z,64.86
2024-01-24T15:03:33.628Z,65.35
2024-01-24T15:06:00.062Z,64.94
2024-01-24T15:08:26.451Z,65.11
2024-01-24T15:10:52.862Z,65.44
2024-01-24T15:13:19.342Z,65.01
2024-01-24T15:15:45.778Z,64.75
2024-01-24T15:18:12.506Z,64.66
2024-01-24T15:20:45.384Z,65.20
2024-01-24T15:23:16.465Z,65.02
2024-01-24T15:25:43.040Z,65.19
2024-01-24T15:28:09.471Z,65.08
2024-01-24T15:30:36.111Z,65.23
2024-01-24T15:33:02.608Z,65.45
2024-01-24T15:35:29.472Z,65.71
2024-01-24T15:37:56.033Z,65.96
2024-01-24T15:40:23.222Z,65.64
2024-01-24T15:42:51.538Z,65.91
2024-01-24T15:45:22.413Z,65.97
2024-01-24T15:47:48.998Z,66.18
2024-01-24T15:50:15.693Z,66.25
2024-01-24T15:52:42.176Z,67.00
2024-01-24T15:55:09.075Z,66.92
2024-01-24T15:57:35.878Z,66.89
2024-01-24T16:00:02.467Z,67.13
2024-01-24T16:02:35.539Z,67.33
2024-01-24T16:05:15.747Z,66.90
2024-01-24T16:07:42.271Z,67.56
2024-01-24T16:10:08.945Z,67.34
2024-01-24T16:12:35.583Z,67.40
2024-01-24T16:15:02.382Z,67.47
2024-01-24T16:17:28.902Z,67.48
2024-01-24T16:19:55.924Z,66.90
2024-01-24T16:22:32.465Z,67.99
2024-01-24T16:25:02.852Z,67.95
2024-01-24T16:27:29.416Z,67.77
2024-01-24T16:29:57.169Z,67.76
2024-01-24T16:32:23.763Z,67.65
2024-01-24T16:34:50.274Z,67.91
2024-01-24T16:37:17.508Z,67.93
2024-01-24T16:39:45.321Z,67.76
2024-01-24T16:42:11.795Z,68.37
2024-01-24T16:44:38.228Z,68.04
2024-01-24T16:47:05.739Z,67.78
2024-01-24T16:49:33.062Z,68.07
2024-01-24T16:52:03.607Z,68.09
2024-01-24T16:54:30.028Z,67.92
2024-01-24T16:56:56.418Z,68.50
2024-01-24T16:59:22.878Z,68.65
2024-01-24T17:01:49.348Z,68.45
2024-01-24T17:04:16.228Z,68.97
2024-01-24T17:06:45.661Z,69.00
2024-01-24T17:09:12.857Z,68.83
2024-01-24T17:11:39.330Z,68.98
2024-01-24T17:14:06.238Z,68.77
2024-01-24T17:16:32.716Z,68.67
2024-01-24T17:18:59.215Z,69.17
2024-01-24T17:21:25.738Z,69.09
2024-01-24T17:23:52.287Z,68.65
2024-01-24T17:26:18.723Z,69.75
2024-01-24T17:28:45.141Z,69.37
2024-01-24T17:31:13.597Z,69.17
2024-01-24T17:33:40.151Z,69.42
2024-01-24T17:36:07.270Z,69.58
2024-01-24T17:38:34.337Z,69.50
2024-01-24T17:41:01.402Z,69.83
2024-01-24T17:43:28.485Z,69.61
2024-01-24T17:45:55.061Z,69.86
2024-01-24T17:48:21.757Z,69.76
2024-01-24T17:50:48.525Z,70.29
2024-01-24T17:53:15.441Z,69.89
2024-01-24T17:55:43.840Z,69.51
2024-01-24T17:58:10.764Z,70.13
2024-01-24T18:00:37.330Z,70.21
2024-01-24T18:03:04.465Z,69.94
2024-01-24T18:05:31.101Z,70.29
2024-01-24T18:07:58.397Z,70.25
2024-01-24T18:10:24.872Z,70.32
2024-01-24T18:12:57.276Z,70.30
2024-01-24T18:15:25.328Z,70.42
2024-01-24T18:17:55.786Z,70.05
2024-01-24T18:20:22.246Z,70.54
2024-01-24T18:22:48.642Z,70.32
2024-01-24T18:25:15.146Z,70.23
2024-01-24T18:27:41.556Z,70.65
2024-01-24T18:30:08.647Z,70.72
2024-01-24T18:32:35.290Z,70.85
2024-01-24T18:35:02.154Z,70.89
2024-01-24T18:37:29.604Z,71.37
2024-01-24T18:39:56.055Z,71.04
2024-01-24T18:42:22.814Z,71.46
2024-01-24T18:44:49.309Z,71.12
2024-01-24T18:47:15.792Z,71.47
2024-01-24T18:49:43.674Z,71.56
2024-01-24T18:52:10.731Z,71.19
2024-01-24T18:54:37.226Z,71.36
2024-01-24T18:57:04.179Z,71.17
2024-01-24T18:59:30.762Z,71.15
2024-01-24T19:01:57.350Z,71.52
2024-01-24T19:04:24.165Z,71.36
2024-01-24T19:06:51.072Z,71.34
2024-01-24T19:09:18.110Z,70.95
2024-01-24T19:11:44.622Z,71.17
2024-01-24T19:14:11.065Z,71.45
2024-01-24T19:16:37.833Z,71.43
2024-01-24T19:19:04.393Z,71.24
2024-01-24T19:21:31.026Z,71.52
2024-01-24T19:23:58.626Z,71.20
2024-01-24T19:26:25.404Z,71.22
2024-01-24T19:28:51.819Z,71.13
2024-01-24T19:31:18.394Z,71.35
2024-01-24T19:33:48.499Z,71.32
2024-01-24T19:36:16.165Z,71.67
2024-01-24T19:38:42.669Z,71.45
2024-01-24T19:41:09.155Z,71.58
2024-01-24T19:43:35.580Z,72.00
2024-01-24T19:46:02.039Z,71.88
2024-01-24T19:48:28.561Z,72.08
2024-01-24T19:50:55.064Z,71.96
2024-01-24T19:53:27.489Z,72.33
2024-01-24T19:56:00.398Z,72.70
2024-01-24T19:58:26.817Z,73.03
2024-01-24T20:00:53.438Z,72.77
2024-01-24T20:03:19.951Z,73.27
2024-01-24T20:05:46.440Z,73.58
2024-01-24T20:08:12.824Z,73.60
2024-01-24T20:10:39.241Z,74.22
2024-01-24T20:13:05.755Z,74.28
2024-01-24T20:15:32.472Z,74.38
2024-01-24T20:17:59.909Z,74.76
2024-01-24T20:20:26.618Z,75.19
2024-01-24T20:22:53.190Z,75.23
2024-01-24T20:25:19.624Z,75.56
2024-01-24T20:27:47.460Z,75.91
2024-01-24T20:30:14.070Z,76.24
2024-01-24T20:32:45.571Z,76.35
2024-01-24T20:35:19.585Z,76.63
2024-01-24T20:37:46.242Z,76.89
2024-01-24T20:40:12.770Z,76.78
2024-01-24T20:42:39.430Z,77.07
2024-01-24T20:45:06.365Z,77.09
2024-01-24T20:47:32.837Z,77.39
2024-01-24T20:49:59.506Z,77.34
2024-01-24T20:52:26.002Z,77.14
2024-01-24T20:54:52.455Z,77.38
2024-01-24T20:57:19.341Z,77.67
2024-01-24T20:59:46.885Z,77.54
2024-01-24T21:02:13.836Z,78.02
2024-01-24T21:04:40.404Z,77.56
2024-01-24T21:07:08.663Z,77.81
2024-01-24T21:09:35.203Z,78.00
2024-01-24T21:12:01.593Z,78.54
2024-01-24T21:14:28.631Z,78.00
2024-01-24T21:16:55.116Z,78.37
2024-01-24T21:19:24.913Z,78.52
2024-01-24T21:21:52.694Z,78.81
2024-01-24T21:24:19.199Z,79.00
2024-01-24T21:26:46.989Z,79.11
2024-01-24T21:29:13.504Z,79.22
2024-01-24T21:31:45.219Z,79.40
2024-01-24T21:34:11.988Z,79.40
2024-01-24T21:36:38.827Z,79.17
2024-01-24T21:39:08.769Z,79.56
2024-01-24T21:41:35.759Z,79.04
2024-01-24T21:44:02.207Z,79.37
2024-01-24T21:46:28.889Z,79.52
2024-01-24T21:48:55.308Z,79.73
2024-01-24T21:51:21.701Z,79.78
2024-01-24T21:53:48.180Z,79.96
2024-01-24T21:56:16.353Z,79.99
2024-01-24T21:58:43.656Z,80.25
2024-01-24T22:01:10.474Z,80.13
2024-01-24T22:03:37.486Z,80.25
2024-01-24T22:06:04.329Z,80.67
2024-01-24T22:08:30.708Z,80.53
2024-01-24T22:10:57.070Z,80.51
2024-01-24T22:13:23.894Z,80.45
2024-01-24T22:15:51.580Z,80.48
2024-01-24T22:18:19.814Z,80.28
2024-01-24T22:20:47.731Z,80.39
2024-01-24T22:23:14.118Z,80.57
2024-01-24T22:25:40.740Z,80.49
2024-01-24T22:28:07.116Z,80.50
2024-01-24T22:30:33.543Z,80.71
2024-01-24T22:33:00.116Z,80.59
2024-01-24T22:35:26.618Z,80.52
2024-01-24T22:37:53.168Z,80.62
2024-01-24T22:40:19.667Z,80.85
2024-01-24T22:42:46.118Z,81.03
2024-01-24T22:45:14.606Z,80.72
2024-01-24T22:47:41.128Z,80.76
2024-01-24T22:50:08.821Z,80.95
2024-01-24T22:52:35.328Z,81.20
2024-01-24T22:55:01.781Z,81.37
2024-01-24T22:57:28.204Z,81.51
2024-01-24T22:59:54.576Z,81.65
2024-01-24T23:02:21.193Z,81.16
2024-01-24T23:04:48.402Z,81.29
2024-01-24T23:07:15.071Z,81.27
2024-01-24T23:09:41.581Z,81.71
2024-01-24T23:12:08.144Z,81.46
2024-01-24T23:14:34.533Z,81.54
2024-01-24T23:17:00.891Z,81.14
2024-01-24T23:19:27.311Z,81.29
2024-01-24T23:21:53.730Z,81.19
2024-01-24T23:24:20.182Z,81.31
2024-01-24T23:26:46.681Z,81.50
2024-01-24T23:29:13.079Z,81.16
2024-01-24T23:31:39.490Z,81.13
2024-01-24T23:34:06.022Z,81.44
2024-01-24T23:36:32.758Z,81.03
2024-01-24T23:38:59.464Z,81.05
2024-01-24T23:41:25.892Z,80.91
2024-01-24T23:43:52.424Z,81.07
2024-01-24T23:46:18.984Z,81.18
2024-01-24T23:48:45.708Z,81.05
2024-01-24T23:51:12.522Z,80.85
2024-01-24T23:53:39.032Z,81.14
2024-01-24T23:56:05.682Z,80.83
2024-01-24T23:58:32.191Z,81.09
